Samail, Oman
Current Conditions -  °F | °C
As of 7:50 AM on Tuesday 23 Dec 2014 (Local Time) from OOMS Reporting Station
Clear Clear  
Wind Chill: 68°   Ceiling: Unl
Heat Index: 68°   Visibility: 5mi
Dew Point: 48°   Wind: 0mph
Humidity: 49%   Direction: NA
Pressure: 30"   Gusts: NA
Location:  23.3°N, 57.93°E
Report Text: OOMS 230350Z 00000KT 8000 NSC 20/09 Q1016 NOSIG
Loading
Personal Weather Stations






























Interactive Weather Map New forecast layout! Learn more

10-Day Weather Forecast

Advertisements
Track Severe Weather on mobile